Portada
METAR-TAF:

METAR-TAF

Aeroports :

Kanoya, Japó

latitud: 31-22N, longitud: 130-50E, altitud: 65 m

Observació

L'informe es va fer fa 4 hores i 16 minuts, a les 19:46 UTC
Vent 15 kt del Oest amb ràfegues de 25 kt
Temperatura 2°C
Humitat 80%
Pressió 1021 hPa
Visibilitat: 7000 m
Escasses núvols a una alçada de 500 ft
Núvols disperses a una alçada de 1500 ft
Cel cobert a una alçada de 3000 ft

METAR: RJFY 171946Z 28015G25KT 7000 FEW005 SCT015 OVC030 02/M01 Q1021 RMK 1ST005 4CU015 8CU030 A3015

Hora: 09:02 (00:02 UTC)


TAF: manca

Observacions i pronòstics meteorològics de més de 4000 aeroports (METAR i TAF).

Les estacions disponibles són els punts grocs i vermells al mapa.

Posi el ratolí al punt desitjat per veure el nom de l'estació.

Feu clic per veure les observacions i els pronòstics meteorològics.

Per canviar el mapa: feu clic els botons verds amb una creu de color negre per apropar; al botó verd amb un guió per allunyar la imatge; o en les fletxes verdes per a mapes adjacents.


METAR-TAF: